Accueil
METAR-TAF:

METAR-TAF

Aéroports :

Base aérienne 123 Orléans-Bricy

Orléans, France

latitude: 47-59N, longitude: 001-45E, altitude: 126 m

Observation

Le bulletin a été fait il y a 34 minutes, à 21:00 UTC
Vent 2 kt de nord-est
Température 10°C
Humidité 82%
Pression 1029 hPa
Visibilité 10 km ou plus
pas de nuages en-dessous de 1500 mètres et pas de cumulonimbus.

METAR: LFOJ 062100Z AUTO 05002KT CAVOK 10/07 Q1029 NOSIG

Heure: 23:34 (21:34 UTC)

Prévision

Le bulletin a été fait il y a 1 heure et 34 minutes, à 20:00 UTC
Prévision valable du 06 à 21 UTC au 07 à 21 UTC
Vent 2 kt de direction variable
Visibilité 10 km ou plus
pas de nuages en-dessous de 1500 mètres et pas de cumulonimbus.

TAF: LFOJ 062000Z 0621/0721 VRB02KT CAVOK TX20/0714Z TN05/0706Z

Observations et prévisions météorologiques de plus de 4000 aéroports (messages METAR et TAF).

Les stations disponibles sont représentées par des disques jaunes et rouges sur la carte.

Passer la souris dessus pour voir le nom de la station.

Cliquer dessus pour voir les observations et prévisions météorologiques.

Pour changer de carte: cliquez sur les boutons verts avec une croix noire pour zoomer, sur le bouton vert avec un tiret pour effectuer un zoom arrière, ou sur les flèches vertes pour les cartes adjacentes.


METAR-TAF: